createdAt,value
2023-06-04T00:10:01.957Z,12.82
2023-06-04T00:20:27.341Z,12.72
2023-06-04T00:30:53.943Z,12.51
2023-06-04T00:41:19.952Z,12.39
2023-06-04T00:51:46.048Z,12.34
2023-06-04T01:02:14.585Z,12.21
2023-06-04T01:12:43.185Z,11.97
2023-06-04T01:23:28.367Z,11.87
2023-06-04T01:33:55.489Z,11.93
2023-06-04T01:44:21.178Z,11.89
2023-06-04T01:54:47.187Z,11.93
2023-06-04T02:05:13.677Z,11.92
2023-06-04T02:15:39.790Z,11.76
2023-06-04T02:26:06.916Z,11.71
2023-06-04T02:36:34.114Z,11.70
2023-06-04T02:46:59.636Z,11.51
2023-06-04T02:57:25.504Z,11.39
2023-06-04T07:12:14.173Z,21.34
2023-06-04T07:22:40.939Z,21.19
2023-06-04T07:33:07.621Z,20.82
2023-06-04T07:43:35.483Z,20.91
2023-06-04T07:54:01.461Z,20.94
2023-06-04T08:04:27.242Z,20.97
2023-06-04T08:14:52.981Z,20.85
2023-06-04T08:25:19.428Z,20.98
2023-06-04T08:35:45.394Z,21.02
2023-06-04T08:46:12.431Z,20.88
2023-06-04T08:56:38.740Z,20.90
2023-06-04T09:07:04.687Z,21.04
2023-06-04T09:17:31.399Z,21.00
2023-06-04T09:27:59.116Z,20.97
2023-06-04T09:38:24.790Z,21.10
2023-06-04T09:48:50.987Z,21.07
2023-06-04T09:59:17.522Z,21.26
2023-06-04T10:09:46.997Z,21.41
2023-06-04T10:20:13.934Z,21.56
2023-06-04T10:30:40.027Z,21.55
2023-06-04T10:41:17.951Z,21.69
2023-06-04T10:51:45.200Z,21.80
2023-06-04T11:02:12.476Z,21.71
2023-06-04T11:12:47.807Z,21.82
2023-06-04T11:23:16.049Z,21.92
2023-06-04T11:33:48.713Z,21.94
2023-06-04T11:44:16.048Z,21.99
2023-06-04T11:54:42.464Z,21.94
2023-06-04T12:05:20.651Z,21.88
2023-06-04T12:16:49.942Z,21.99
2023-06-04T12:27:55.805Z,22.17
2023-06-04T12:38:21.682Z,22.26
2023-06-04T12:48:48.048Z,22.24
2023-06-04T12:59:14.437Z,22.28
2023-06-04T13:09:41.209Z,22.21
2023-06-04T13:20:09.798Z,22.30
2023-06-04T13:30:37.106Z,22.32
2023-06-04T13:41:03.328Z,22.43
2023-06-04T13:51:31.411Z,22.53
2023-06-04T14:01:57.200Z,22.47
2023-06-04T14:12:23.153Z,22.42
2023-06-04T14:22:49.296Z,22.48
2023-06-04T14:33:30.122Z,22.52
2023-06-04T14:43:55.956Z,22.56
2023-06-04T14:54:22.002Z,22.55
2023-06-04T15:04:48.165Z,22.51
2023-06-04T15:15:14.837Z,22.49
2023-06-04T15:25:40.962Z,22.47
2023-06-04T15:36:05.808Z,22.40
2023-06-04T15:46:31.950Z,22.38
2023-06-04T15:56:57.158Z,22.39
2023-06-04T16:07:23.407Z,22.27
2023-06-04T16:17:49.827Z,22.23
2023-06-04T16:28:16.785Z,22.25
2023-06-04T16:38:43.169Z,22.27
2023-06-04T16:49:09.235Z,22.20
2023-06-04T16:59:35.597Z,22.16
2023-06-04T17:10:01.597Z,22.15
2023-06-04T17:20:27.490Z,22.09
2023-06-04T17:30:53.940Z,22.03
2023-06-04T17:41:20.303Z,22.00
2023-06-04T17:51:46.399Z,21.87
2023-06-04T18:02:12.715Z,21.57
2023-06-04T18:12:39.564Z,21.34
2023-06-04T18:23:06.473Z,21.22
2023-06-04T18:33:32.972Z,21.07
2023-06-04T18:44:32.514Z,20.90
2023-06-04T18:54:58.930Z,20.69
2023-06-04T19:05:32.466Z,20.34
2023-06-04T19:15:58.928Z,20.16
2023-06-04T19:26:24.801Z,19.91
2023-06-04T19:36:50.708Z,19.64
2023-06-04T19:47:16.871Z,19.32
2023-06-04T19:57:45.799Z,18.91
2023-06-04T20:08:12.376Z,18.44
2023-06-04T20:18:37.168Z,18.08
2023-06-04T20:29:04.436Z,17.92
2023-06-04T20:39:32.036Z,17.78
2023-06-04T20:49:56.256Z,17.52
2023-06-04T21:00:22.559Z,17.13
2023-06-04T21:10:49.031Z,16.81
2023-06-04T21:21:14.917Z,16.53
2023-06-04T21:31:41.820Z,16.41
2023-06-04T21:42:08.662Z,16.31
2023-06-04T21:52:34.786Z,16.19
2023-06-04T22:03:00.814Z,15.98
2023-06-04T22:13:50.914Z,15.60
2023-06-04T22:24:46.999Z,15.42
2023-06-04T22:35:13.701Z,15.18
2023-06-04T22:45:41.914Z,15.05
2023-06-04T22:56:10.353Z,14.85
2023-06-04T23:06:37.902Z,14.76
2023-06-04T23:17:03.819Z,14.59
2023-06-04T23:27:29.856Z,14.44
2023-06-04T23:37:56.003Z,14.25
2023-06-04T23:48:21.817Z,14.08
2023-06-04T23:58:48.515Z,14.00
